Airfield :







YOU CAN JOIN US ON...

 
LOGIN :

Register | Disclaimer

   EN    FR    IT 

 









Legend :    VFR   Marginal VFR   IFR   Intensive IFR   Very Intensive IFR
Visi :
Ceiling :
>= 8 km
>= 3000ft
5 to 8 km
1000 to 3000 ft
1500m to 5 km
500 to 1000 ft
800 to 1500m
200 to 500 ft
< 800m
< 200 ft
Symbols :   Thunderstorms  Fog  Heavy snow  Heavy precipitations  Wind > 20 kt






- Airport Elevation : 881 ft


KNY0 - Fulton County

CURRENT METAR :
  • 080917Z AUTO 09005KT 10SM SCT009 SCT012 OVC020 04/03 A2954 RMK AO2

EXPIRED METARs :
  • 080857Z AUTO 09005KT 10SM SCT009 OVC020 04/04 A2956 RMK AO2 P0001
  • 080837Z AUTO 08008KT 10SM SCT007 BKN011 OVC018 04/04 A2956 RMK AO2 P0001
  • 080817Z AUTO 09008KT 5SM BKN005 OVC008 05/04 A2954 RMK AO2 P0001
  • 080757Z AUTO 09005KT 7SM BKN005 BKN012 OVC026 05/04 A2955 RMK AO2 P0001
  • 080737Z AUTO 08006KT 7SM OVC026 05/05 A2956 RMK AO2 P0001
  • 080717Z AUTO 07004KT 7SM BKN030 BKN035 OVC041 05/05 A2958 RMK AO2
  • 080657Z AUTO 10005KT 10SM BKN040 OVC048 05/05 A2958 RMK AO2 P0003
  • 080637Z AUTO 07004KT 10SM SCT043 OVC050 05/05 A2958 RMK AO2 P0003

TAF N/A



MET'MAP, your aeronautical weather chart ! - Copyright ORBIFLY December 2007 - Disclaimer

ORBIFLY MET'MAP TEAM :

Programming & Development : Alexandra Zaïnal
Concept & original design : Baudouin d'Aumeries
Assistance for programming : Marc-Olivier Méhu
Technical & hardware support : Manuel Goepfert

Contact : metmap@orbifly.com




SOURCES & CREDITS :

   NOAA